createdAt,value
2022-10-03T00:10:10.814Z,83.70
2022-10-03T00:14:17.049Z,84.10
2022-10-03T00:17:40.632Z,84.50
2022-10-03T00:24:49.431Z,85.30
2022-10-03T00:28:19.232Z,84.80
2022-10-03T00:31:15.052Z,84.40
2022-10-03T00:34:02.012Z,84.70
2022-10-03T00:36:43.549Z,85.20
2022-10-03T00:39:39.674Z,86.00
2022-10-03T00:42:35.703Z,86.10
2022-10-03T00:45:34.929Z,86.60
2022-10-03T00:48:45.415Z,87.10
2022-10-03T00:51:34.322Z,87.70
2022-10-03T00:54:26.711Z,87.30
2022-10-03T00:57:10.786Z,86.80
2022-10-03T01:00:06.937Z,86.50
2022-10-03T01:02:55.690Z,87.00
2022-10-03T01:05:37.334Z,87.20
2022-10-03T01:08:44.426Z,86.80
2022-10-03T01:11:28.692Z,86.60
2022-10-03T01:18:49.444Z,85.80
2022-10-03T01:22:52.862Z,85.10
2022-10-03T01:44:28.771Z,84.70
2022-10-03T01:48:12.384Z,84.10
2022-10-03T01:51:15.529Z,83.40
2022-10-03T01:54:32.085Z,85.60
2022-10-03T02:17:41.406Z,86.40
2022-10-03T02:46:33.223Z,84.30
2022-10-03T02:51:31.586Z,84.30
2022-10-03T03:01:41.236Z,83.30
2022-10-03T03:05:35.284Z,83.90
2022-10-03T03:24:55.252Z,84.20
2022-10-03T03:28:28.281Z,83.40
2022-10-03T03:31:30.412Z,84.40
2022-10-03T03:34:42.765Z,83.50
2022-10-03T03:37:33.317Z,82.90
2022-10-03T03:40:32.875Z,81.90
2022-10-03T03:43:26.790Z,81.10
2022-10-03T03:46:12.360Z,81.00
2022-10-03T03:49:02.614Z,80.20
2022-10-03T03:51:41.423Z,80.20
2022-10-03T03:54:48.432Z,79.30
2022-10-03T03:57:33.346Z,80.20
2022-10-03T04:00:16.894Z,79.70
2022-10-03T04:03:02.535Z,80.80
2022-10-03T04:05:57.200Z,80.20
2022-10-03T04:08:47.641Z,80.20
2022-10-03T04:11:29.151Z,80.10
2022-10-03T04:14:28.689Z,80.20
2022-10-03T04:17:37.490Z,80.00
2022-10-03T04:20:20.717Z,80.80
2022-10-03T04:23:03.392Z,80.70
2022-10-03T04:25:54.743Z,80.40
2022-10-03T04:28:41.627Z,80.30
2022-10-03T04:31:35.147Z,80.10
2022-10-03T04:34:23.510Z,80.00
2022-10-03T04:37:18.945Z,79.90
2022-10-03T04:40:03.425Z,79.90
2022-10-03T04:42:54.576Z,80.80
2022-10-03T04:45:55.505Z,80.60
2022-10-03T04:48:43.244Z,80.40
2022-10-03T04:51:28.884Z,80.20
2022-10-03T04:54:20.863Z,80.30
2022-10-03T04:57:01.146Z,80.00
2022-10-03T04:59:59.242Z,79.90
2022-10-03T05:02:50.855Z,80.00
2022-10-03T05:05:39.008Z,79.00
2022-10-03T05:08:20.933Z,79.70
2022-10-03T05:10:56.948Z,79.70
2022-10-03T05:13:41.476Z,78.10
2022-10-03T05:16:32.489Z,78.70
2022-10-03T05:19:42.415Z,78.60
2022-10-03T05:22:50.146Z,79.70
2022-10-03T05:25:48.475Z,79.70
2022-10-03T05:28:39.402Z,78.90
2022-10-03T05:32:28.570Z,79.50
2022-10-03T05:35:29.237Z,79.80
2022-10-03T05:38:26.384Z,79.90
2022-10-03T05:41:09.787Z,79.70
2022-10-03T05:43:58.564Z,79.70
2022-10-03T05:47:00.970Z,79.40
2022-10-03T05:49:51.052Z,80.80
2022-10-03T05:52:44.188Z,81.90
2022-10-03T05:55:49.847Z,83.10
2022-10-03T05:58:45.776Z,82.70
2022-10-03T06:01:52.027Z,82.40
2022-10-03T06:04:55.765Z,82.60
2022-10-03T06:07:34.217Z,82.30
2022-10-03T06:10:37.720Z,81.80
2022-10-03T06:13:51.724Z,81.10
2022-10-03T06:16:41.745Z,80.00
2022-10-03T06:20:06.136Z,79.80
2022-10-03T06:23:17.020Z,79.50
2022-10-03T06:26:31.413Z,79.50
2022-10-03T06:29:58.981Z,79.60
2022-10-03T06:33:17.660Z,79.50
2022-10-03T06:37:06.855Z,79.50
2022-10-03T06:40:35.876Z,79.60
2022-10-03T06:43:28.901Z,80.20
2022-10-03T06:46:20.868Z,79.70
2022-10-03T06:49:13.803Z,80.20
2022-10-03T06:51:58.535Z,80.50
2022-10-03T06:55:12.376Z,80.20
2022-10-03T06:58:13.805Z,81.00
2022-10-03T07:00:56.595Z,81.10
2022-10-03T07:04:03.425Z,80.70
2022-10-03T07:06:52.638Z,81.20
2022-10-03T07:10:10.773Z,81.10
2022-10-03T07:13:40.802Z,81.50
2022-10-03T07:17:36.068Z,81.70
2022-10-03T07:21:52.415Z,81.90
2022-10-03T07:25:28.673Z,82.00
2022-10-03T07:28:28.647Z,82.40
2022-10-03T07:31:10.358Z,83.00
2022-10-03T07:34:28.733Z,82.90
2022-10-03T07:41:56.218Z,82.40
2022-10-03T07:45:42.612Z,82.50
2022-10-03T07:54:29.460Z,83.20
2022-10-03T08:22:47.303Z,82.30
2022-10-03T08:26:30.756Z,82.20
2022-10-03T08:30:02.277Z,83.70
2022-10-03T08:33:29.259Z,81.90
2022-10-03T08:37:02.147Z,80.40
2022-10-03T08:40:11.452Z,80.70
2022-10-03T08:43:22.213Z,80.50
2022-10-03T08:46:07.706Z,79.40
2022-10-03T08:49:23.717Z,80.20
2022-10-03T08:52:04.654Z,79.40
2022-10-03T08:55:19.961Z,78.60
2022-10-03T08:58:49.804Z,79.90
2022-10-03T09:02:24.293Z,76.80
2022-10-03T09:05:40.318Z,76.80
2022-10-03T09:08:36.720Z,78.50
2022-10-03T09:11:35.062Z,77.80
2022-10-03T09:14:44.533Z,76.60
2022-10-03T09:17:46.925Z,77.90
2022-10-03T09:20:52.090Z,76.00
2022-10-03T09:24:01.049Z,76.80
2022-10-03T09:26:51.023Z,75.40
2022-10-03T09:29:50.569Z,73.10
2022-10-03T09:33:03.418Z,72.60
2022-10-03T09:35:55.976Z,75.20
2022-10-03T09:39:08.123Z,75.00
2022-10-03T09:42:14.067Z,74.40
2022-10-03T09:45:10.252Z,72.70
2022-10-03T09:48:20.400Z,72.60
2022-10-03T09:51:16.866Z,72.90
2022-10-03T09:54:16.831Z,72.90
2022-10-03T09:57:22.907Z,71.60
2022-10-03T10:00:17.876Z,71.70
2022-10-03T10:03:13.343Z,72.10
2022-10-03T10:06:18.892Z,71.50
2022-10-03T10:09:31.548Z,71.10
2022-10-03T10:12:32.318Z,70.10
2022-10-03T10:15:21.214Z,71.40
2022-10-03T10:18:20.221Z,69.10
2022-10-03T10:21:24.353Z,68.30
2022-10-03T10:24:03.672Z,70.50
2022-10-03T10:27:03.921Z,68.60
2022-10-03T10:30:01.688Z,70.90
2022-10-03T10:33:27.513Z,69.10
2022-10-03T10:36:25.594Z,70.60
2022-10-03T10:39:29.989Z,69.30
2022-10-03T10:47:06.156Z,66.20
2022-10-03T10:50:23.301Z,66.70
2022-10-03T10:53:54.670Z,65.60
2022-10-03T10:57:17.102Z,64.30
2022-10-03T11:00:22.990Z,66.50
2022-10-03T11:03:44.123Z,66.30
2022-10-03T11:06:53.486Z,64.70
2022-10-03T11:09:49.750Z,62.60
2022-10-03T11:13:02.299Z,61.90
2022-10-03T11:16:15.972Z,61.80
2022-10-03T11:19:24.581Z,62.20
2022-10-03T11:22:25.729Z,65.10
2022-10-03T11:25:56.488Z,59.40
2022-10-03T11:29:06.960Z,61.20
2022-10-03T11:32:35.708Z,59.00
2022-10-03T11:35:49.368Z,60.20
2022-10-03T11:38:30.111Z,60.70
2022-10-03T11:41:16.240Z,57.30
2022-10-03T11:44:15.994Z,58.20
2022-10-03T11:47:15.481Z,58.90
2022-10-03T11:50:21.245Z,58.10
2022-10-03T11:53:06.867Z,59.90
2022-10-03T11:55:41.354Z,58.60
2022-10-03T12:59:42.263Z,46.40
2022-10-03T13:03:12.129Z,41.90
2022-10-03T13:06:10.838Z,46.70
2022-10-03T13:09:00.999Z,45.40
2022-10-03T13:11:47.487Z,45.90
2022-10-03T13:14:33.043Z,45.60
2022-10-03T13:17:24.459Z,42.50
2022-10-03T13:19:59.699Z,42.10
2022-10-03T13:22:43.280Z,44.20
2022-10-03T13:25:25.946Z,40.60
2022-10-03T13:28:04.893Z,42.40
2022-10-03T13:30:40.735Z,43.00
2022-10-03T13:33:19.071Z,41.00
2022-10-03T13:36:30.737Z,41.60
2022-10-03T13:39:23.975Z,43.20
2022-10-03T13:42:10.823Z,45.40
2022-10-03T13:45:06.740Z,43.60
2022-10-03T13:48:08.561Z,43.50
2022-10-03T13:51:05.811Z,43.50
2022-10-03T13:53:52.681Z,42.40
2022-10-03T13:56:45.848Z,40.20
2022-10-03T13:59:36.744Z,40.70
2022-10-03T14:02:16.871Z,39.20
2022-10-03T14:05:07.707Z,38.20
2022-10-03T14:11:47.455Z,38.00
2022-10-03T14:14:36.059Z,36.80
2022-10-03T14:17:15.073Z,33.60
2022-10-03T14:20:20.332Z,32.90
2022-10-03T14:27:46.600Z,34.50
2022-10-03T14:30:18.560Z,33.30
2022-10-03T14:33:00.260Z,34.30
2022-10-03T14:35:43.795Z,34.30
2022-10-03T14:39:02.407Z,36.10
2022-10-03T14:41:47.873Z,35.40
2022-10-03T14:44:23.203Z,34.00
2022-10-03T14:47:03.000Z,33.00
2022-10-03T14:50:30.061Z,36.80
2022-10-03T14:54:40.849Z,35.20
2022-10-03T14:57:58.684Z,36.10
2022-10-03T15:02:27.071Z,33.90
2022-10-03T15:04:06.133Z,32.70
2022-10-03T15:06:55.257Z,30.30
2022-10-03T15:09:43.302Z,31.60
2022-10-03T15:12:30.255Z,31.90
2022-10-03T15:15:13.418Z,33.20
2022-10-03T15:17:47.181Z,33.70
2022-10-03T15:20:21.744Z,31.30
2022-10-03T15:22:53.806Z,32.00
2022-10-03T15:25:30.341Z,32.70
2022-10-03T15:28:05.181Z,34.60
2022-10-03T15:30:37.545Z,34.30
2022-10-03T15:33:12.634Z,33.40
2022-10-03T15:35:47.557Z,34.50
2022-10-03T15:38:27.540Z,34.60
2022-10-03T15:41:12.627Z,34.60
2022-10-03T15:43:47.225Z,35.50
2022-10-03T15:46:36.312Z,36.00
2022-10-03T15:49:09.267Z,36.60
2022-10-03T15:51:48.958Z,36.30
2022-10-03T15:54:27.655Z,36.60
2022-10-03T15:57:00.540Z,37.20
2022-10-03T15:59:34.622Z,37.30
2022-10-03T16:02:29.285Z,36.20
2022-10-03T16:05:18.567Z,37.30
2022-10-03T16:08:55.779Z,36.80
2022-10-03T16:11:38.109Z,38.60
2022-10-03T16:14:43.419Z,38.30
2022-10-03T16:17:44.428Z,37.40
2022-10-03T16:23:22.540Z,39.40
2022-10-03T16:25:57.884Z,38.00
2022-10-03T16:28:57.913Z,38.70
2022-10-03T16:31:38.498Z,41.10
2022-10-03T16:34:22.195Z,41.80
2022-10-03T16:37:08.230Z,42.60
2022-10-03T16:39:51.043Z,42.90
2022-10-03T16:42:26.659Z,43.10
2022-10-03T16:44:58.645Z,42.40
2022-10-03T16:47:36.337Z,40.80
2022-10-03T16:50:25.288Z,42.00
2022-10-03T16:52:57.524Z,41.60
2022-10-03T16:55:37.984Z,43.30
2022-10-03T16:58:17.813Z,45.20
2022-10-03T17:01:14.969Z,45.60
2022-10-03T17:04:13.993Z,47.00
2022-10-03T17:06:46.110Z,48.30
2022-10-03T17:09:41.930Z,50.70
2022-10-03T17:12:41.685Z,51.40
2022-10-03T17:15:22.323Z,51.10
2022-10-03T17:18:00.192Z,51.00
2022-10-03T17:20:41.097Z,51.60
2022-10-03T17:23:26.209Z,52.00
2022-10-03T17:26:04.273Z,52.90
2022-10-03T17:28:56.656Z,53.70
2022-10-03T17:31:32.217Z,53.60
2022-10-03T17:35:08.413Z,53.10
2022-10-03T17:38:44.970Z,53.70
2022-10-03T17:41:23.642Z,53.80
2022-10-03T17:44:17.372Z,55.10
2022-10-03T17:48:04.952Z,56.00
2022-10-03T17:50:36.826Z,55.00
2022-10-03T17:53:22.163Z,55.00
2022-10-03T17:56:03.413Z,54.70
2022-10-03T17:58:33.612Z,55.40
2022-10-03T18:01:12.854Z,55.00
2022-10-03T18:03:48.982Z,53.80
2022-10-03T18:06:55.465Z,53.50
2022-10-03T18:09:32.724Z,53.70
2022-10-03T18:12:15.168Z,54.10
2022-10-03T18:15:22.763Z,53.80
2022-10-03T18:18:07.772Z,54.50
2022-10-03T18:21:22.316Z,53.20
2022-10-03T18:24:17.125Z,52.70
2022-10-03T18:27:11.096Z,53.40
2022-10-03T18:29:51.361Z,53.80
2022-10-03T18:32:33.985Z,53.50
2022-10-03T18:36:20.243Z,54.70
2022-10-03T18:38:45.309Z,55.00
2022-10-03T18:41:18.331Z,54.50
2022-10-03T18:43:58.989Z,54.80
2022-10-03T18:47:17.989Z,54.80
2022-10-03T18:49:59.819Z,54.70
2022-10-03T18:52:39.443Z,55.30
2022-10-03T18:55:47.073Z,55.00
2022-10-03T19:14:09.658Z,54.70
2022-10-03T19:17:01.785Z,54.80
2022-10-03T19:19:35.769Z,55.50
2022-10-03T19:22:07.069Z,53.70
2022-10-03T19:24:57.444Z,53.30
2022-10-03T19:27:45.633Z,52.60
2022-10-03T19:30:20.776Z,52.70
2022-10-03T19:33:06.655Z,53.00
2022-10-03T19:36:55.333Z,53.30
2022-10-03T19:39:07.280Z,53.60
2022-10-03T19:41:39.400Z,54.10
2022-10-03T19:44:14.094Z,54.50
2022-10-03T19:47:05.452Z,55.10
2022-10-03T19:54:58.874Z,56.00
2022-10-03T20:02:06.362Z,54.30
2022-10-03T20:09:30.879Z,52.40
2022-10-03T20:12:10.845Z,51.70
2022-10-03T20:14:44.864Z,52.20
2022-10-03T20:17:41.746Z,52.10
2022-10-03T20:20:42.850Z,52.00
2022-10-03T20:23:43.640Z,52.20
2022-10-03T20:26:34.418Z,53.20
2022-10-03T20:29:40.111Z,52.60
2022-10-03T20:32:16.711Z,52.50
2022-10-03T20:34:54.321Z,53.20
2022-10-03T20:37:39.494Z,51.80
2022-10-03T20:40:35.987Z,52.40
2022-10-03T20:43:41.319Z,52.30
2022-10-03T20:47:08.816Z,53.70
2022-10-03T20:49:40.461Z,51.80
2022-10-03T20:52:17.347Z,52.90
2022-10-03T20:54:53.333Z,52.40
2022-10-03T20:57:33.513Z,51.60
2022-10-03T21:00:17.352Z,50.80
2022-10-03T21:02:50.472Z,49.20
2022-10-03T21:05:23.916Z,50.60
2022-10-03T21:07:55.104Z,50.80
2022-10-03T21:10:28.885Z,50.90
2022-10-03T21:13:00.151Z,51.10
2022-10-03T21:15:40.722Z,50.50
2022-10-03T21:18:14.952Z,50.90
2022-10-03T21:20:43.012Z,51.20
2022-10-03T21:23:18.363Z,50.20
2022-10-03T21:25:47.186Z,50.90
2022-10-03T21:28:24.463Z,50.80
2022-10-03T21:31:22.590Z,51.60
2022-10-03T21:34:01.920Z,52.40
2022-10-03T21:36:38.188Z,51.30
2022-10-03T21:39:17.441Z,51.30
2022-10-03T21:41:58.499Z,51.00
2022-10-03T21:44:38.651Z,49.70
2022-10-03T21:47:22.053Z,49.50
2022-10-03T21:49:56.474Z,48.90
2022-10-03T21:52:50.568Z,48.80
2022-10-03T21:55:51.657Z,49.00
2022-10-03T21:58:46.444Z,48.80
2022-10-03T22:01:20.900Z,48.90
2022-10-03T22:03:59.933Z,47.90
2022-10-03T22:06:32.450Z,48.60
2022-10-03T22:09:03.889Z,49.10
2022-10-03T22:11:43.148Z,49.00
2022-10-03T22:14:18.783Z,50.30
2022-10-03T22:16:56.581Z,49.50
2022-10-03T22:19:36.022Z,48.40
2022-10-03T22:22:36.325Z,49.60
2022-10-03T22:25:18.541Z,49.10
2022-10-03T22:27:55.999Z,49.60
2022-10-03T22:30:24.544Z,50.10
2022-10-03T22:33:07.875Z,50.10
2022-10-03T22:35:54.834Z,49.70
2022-10-03T22:38:44.188Z,49.80
2022-10-03T22:41:17.259Z,51.40
2022-10-03T22:43:46.740Z,50.80
2022-10-03T22:46:21.438Z,50.60
2022-10-03T22:48:53.741Z,50.40
2022-10-03T22:51:23.547Z,49.40
2022-10-03T22:53:54.378Z,50.10
2022-10-03T22:56:47.252Z,50.50
2022-10-03T22:59:21.211Z,51.30
2022-10-03T23:01:52.423Z,50.80
2022-10-03T23:04:29.353Z,49.80
2022-10-03T23:07:16.078Z,49.80
2022-10-03T23:09:52.448Z,49.80
2022-10-03T23:12:22.893Z,50.30
2022-10-03T23:14:54.175Z,49.20
2022-10-03T23:17:45.771Z,48.70
2022-10-03T23:20:22.530Z,49.90
2022-10-03T23:22:56.871Z,48.90
2022-10-03T23:25:29.283Z,48.60
2022-10-03T23:28:11.764Z,48.60
2022-10-03T23:30:51.850Z,49.50
2022-10-03T23:33:44.959Z,48.50
2022-10-03T23:36:17.672Z,46.60
2022-10-03T23:39:03.184Z,48.00
2022-10-03T23:41:45.255Z,49.30
2022-10-03T23:44:31.092Z,48.70
2022-10-03T23:47:02.446Z,50.30
2022-10-03T23:49:30.598Z,51.80
2022-10-03T23:51:59.237Z,53.00
2022-10-03T23:54:29.153Z,52.60
2022-10-03T23:57:06.332Z,52.60
2022-10-03T23:59:37.805Z,52.80
